Portada
METAR-TAF:

METAR-TAF

Aeroports :

Base aèria Alcantarilla

Múrcia, Espanya

latitud: 37-57N, longitud: 001-14W, altitud: 75 m

Observació

L'informe es va fer fa 16 minuts, a les 15:00 UTC
Vent 5 kt del Nord/Nord-Est
Temperatura 13°C
Humitat 88%
Pressió 1015 hPa
Visibilitat: 6000 m
Núvols disperses a una alçada de 1000 ft
Cel ennuvolat a una alçada de 2500 ft
pluja

METAR: LERI 191500Z 02005KT 6000 -RA SCT010 BKN025 13/11 Q1015 NOSIG

Hora: 17:16 (15:16 UTC)

Pronòstic

L'informe es va fer fa 1 hora i 16 minuts, a les 14:00 UTC
Pronòstic vàlid del 19 a les 15 UTC al 19 a les 24 UTC
Vent 5 kt del Nord/Nord-Oest
Visibilitat 10 km o més
Escasses núvols a una alçada de 2000 ft
Núvols disperses a una alçada de 3000 ft
Temporalment
l' 19 a les 15 UTC al 19 a les 24 UTC
Visibilitat: 4000 m
Cel ennuvolat a una alçada de 1200 ft
pluja

TAF: LERI 191400Z 1915/1924 34005KT 9999 FEW020 SCT030 TEMPO 1915/1924 4000 RA BKN012

Observacions i pronòstics meteorològics de més de 4000 aeroports (METAR i TAF).

Les estacions disponibles són els punts grocs i vermells al mapa.

Posi el ratolí al punt desitjat per veure el nom de l'estació.

Feu clic per veure les observacions i els pronòstics meteorològics.

Per canviar el mapa: feu clic els botons verds amb una creu de color negre per apropar; al botó verd amb un guió per allunyar la imatge; o en les fletxes verdes per a mapes adjacents.


METAR-TAF: